createdAt,value
2022-12-17T00:01:09.237Z,98883.91
2022-12-17T00:04:29.292Z,98885.91
2022-12-17T00:07:50.961Z,98888.25
2022-12-17T00:11:12.502Z,98892.56
2022-12-17T00:14:32.877Z,98894.13
2022-12-17T00:17:53.757Z,98891.50
2022-12-17T00:21:14.671Z,98909.16
2022-12-17T00:24:36.451Z,98906.56
2022-12-17T00:27:56.938Z,98902.34
2022-12-17T00:31:17.137Z,98910.16
2022-12-17T00:34:37.442Z,98916.31
2022-12-17T00:37:57.881Z,98920.53
2022-12-17T00:41:19.771Z,98931.38
2022-12-17T00:44:40.017Z,98929.75
2022-12-17T00:48:00.354Z,98933.28
2022-12-17T00:51:20.562Z,98937.44
2022-12-17T00:54:41.192Z,98934.78
2022-12-17T00:58:02.848Z,98938.69
2022-12-17T01:01:23.135Z,98950.22
2022-12-17T01:04:43.324Z,98960.69
2022-12-17T01:08:03.741Z,98964.41
2022-12-17T01:11:26.125Z,98953.19
2022-12-17T01:14:47.633Z,98961.88
2022-12-17T01:18:08.008Z,98961.06
2022-12-17T01:21:27.987Z,98970.22
2022-12-17T01:24:48.427Z,98971.03
2022-12-17T01:28:08.774Z,98967.72
2022-12-17T01:31:34.926Z,98966.72
2022-12-17T01:34:55.430Z,98972.50
2022-12-17T01:38:15.646Z,98967.34
2022-12-17T01:41:36.077Z,98970.84
2022-12-17T01:45:05.926Z,98980.22
2022-12-17T01:48:32.262Z,98981.69
2022-12-17T01:51:53.114Z,98981.09
2022-12-17T01:55:13.410Z,98985.63
2022-12-17T01:58:33.661Z,98992.59
2022-12-17T02:01:54.436Z,99003.69
2022-12-17T02:05:15.968Z,99010.25
2022-12-17T02:08:40.923Z,99008.22
2022-12-17T02:12:04.754Z,99022.56
2022-12-17T02:15:31.836Z,99024.41
2022-12-17T02:18:55.823Z,99024.63
2022-12-17T02:22:21.329Z,99015.84
2022-12-17T02:25:45.923Z,99022.59
2022-12-17T02:29:09.017Z,99024.66
2022-12-17T02:32:29.923Z,99027.72
2022-12-17T02:35:51.420Z,99034.63
2022-12-17T02:39:11.625Z,99028.69
2022-12-17T02:42:31.928Z,99039.13
2022-12-17T02:45:53.500Z,99045.41
2022-12-17T02:49:14.135Z,99043.69
2022-12-17T02:52:36.486Z,99049.63
2022-12-17T02:55:57.086Z,99043.06
2022-12-17T02:59:17.507Z,99052.00
2022-12-17T03:02:38.959Z,99051.44
2022-12-17T03:05:59.307Z,99063.44
2022-12-17T03:09:19.758Z,99068.31
2022-12-17T03:12:40.080Z,99064.13
2022-12-17T03:16:00.492Z,99063.59
2022-12-17T03:19:22.758Z,99064.53
2022-12-17T03:22:43.080Z,99083.16
2022-12-17T03:26:03.272Z,99090.06
2022-12-17T03:29:38.077Z,99089.66
2022-12-17T03:32:58.615Z,99093.88
2022-12-17T03:36:20.307Z,99094.63
2022-12-17T03:39:40.695Z,99101.78
2022-12-17T03:43:01.085Z,99093.69
2022-12-17T03:46:23.322Z,99101.94
2022-12-17T03:49:43.603Z,99095.13
2022-12-17T03:53:05.301Z,99093.97
2022-12-17T03:56:25.597Z,99095.88
2022-12-17T03:59:45.996Z,99096.84
2022-12-17T04:03:06.446Z,99090.28
2022-12-17T04:06:26.738Z,99100.00
2022-12-17T04:09:48.456Z,99097.13
2022-12-17T04:13:08.938Z,99105.66
2022-12-17T04:16:29.236Z,99108.25
2022-12-17T04:19:49.665Z,99108.72
2022-12-17T04:23:09.815Z,99122.84
2022-12-17T04:26:31.421Z,99126.13
2022-12-17T04:29:51.886Z,99141.38
2022-12-17T04:33:11.994Z,99134.28
2022-12-17T04:36:32.348Z,99140.91
2022-12-17T04:39:52.899Z,99141.09
2022-12-17T04:43:14.407Z,99145.38
2022-12-17T04:46:34.852Z,99143.56
2022-12-17T04:49:54.942Z,99141.25
2022-12-17T04:53:18.929Z,99147.00
2022-12-17T04:56:39.149Z,99147.66
2022-12-17T05:00:01.006Z,99165.41
2022-12-17T05:03:24.542Z,99165.06
2022-12-17T05:06:44.772Z,99161.53
2022-12-17T05:10:05.172Z,99166.88
2022-12-17T05:13:25.583Z,99167.19
2022-12-17T05:16:47.311Z,99176.38
2022-12-17T05:20:19.149Z,99179.00
2022-12-17T05:23:39.546Z,99184.28
2022-12-17T05:26:59.840Z,99185.97
2022-12-17T05:30:20.191Z,99186.97
2022-12-17T05:33:41.882Z,99188.22
2022-12-17T05:37:02.178Z,99193.06
2022-12-17T05:40:22.961Z,99202.06
2022-12-17T05:43:43.417Z,99194.22
2022-12-17T05:47:03.620Z,99191.06
2022-12-17T05:50:26.996Z,99196.53
2022-12-17T05:53:47.279Z,99205.34
2022-12-17T05:57:07.640Z,99217.03
2022-12-17T06:00:28.995Z,99213.00
2022-12-17T06:03:49.248Z,99221.81
2022-12-17T06:07:13.190Z,99216.59
2022-12-17T06:10:33.458Z,99225.31
2022-12-17T06:13:53.902Z,99226.41
2022-12-17T06:17:14.200Z,99237.03
2022-12-17T06:20:34.661Z,99235.97
2022-12-17T06:23:56.084Z,99231.38
2022-12-17T06:27:16.421Z,99229.66
2022-12-17T06:30:36.873Z,99239.03
2022-12-17T06:34:02.787Z,99250.50
2022-12-17T06:37:23.213Z,99246.41
2022-12-17T06:40:44.953Z,99251.56
2022-12-17T06:44:05.218Z,99253.53
2022-12-17T06:47:25.825Z,99252.09
2022-12-17T06:50:46.041Z,99258.00
2022-12-17T06:54:06.337Z,99266.97
2022-12-17T06:57:28.012Z,99273.50
2022-12-17T07:00:48.559Z,99262.56
2022-12-17T07:04:08.708Z,99268.63
2022-12-17T07:07:29.126Z,99285.09
2022-12-17T07:10:49.531Z,99289.41
2022-12-17T07:14:11.104Z,99286.66
2022-12-17T07:17:31.331Z,99287.97
2022-12-17T07:20:51.665Z,99299.41
2022-12-17T07:24:12.078Z,99293.44
2022-12-17T07:27:32.637Z,99302.72
2022-12-17T07:30:55.873Z,99308.94
2022-12-17T07:34:16.051Z,99316.53
2022-12-17T07:37:32.635Z,99328.41
2022-12-17T07:40:54.412Z,99330.81
2022-12-17T07:44:14.860Z,99328.44
2022-12-17T07:47:36.596Z,99332.88
2022-12-17T07:50:57.040Z,99339.00
2022-12-17T07:54:17.463Z,99342.16
2022-12-17T07:57:37.792Z,99343.56
2022-12-17T08:00:58.024Z,99365.03
2022-12-17T08:04:19.404Z,99362.78
2022-12-17T08:07:39.834Z,99363.38
2022-12-17T08:11:02.790Z,99369.53
2022-12-17T08:14:23.080Z,99371.47
2022-12-17T08:17:43.476Z,99370.66
2022-12-17T08:21:04.857Z,99369.34
2022-12-17T08:24:25.387Z,99382.81
2022-12-17T08:27:45.887Z,99382.59
2022-12-17T08:31:06.976Z,99380.63
2022-12-17T08:34:27.162Z,99388.88
2022-12-17T08:37:51.456Z,99392.25
2022-12-17T08:41:11.694Z,99403.66
2022-12-17T08:44:31.838Z,99411.13
2022-12-17T08:47:52.188Z,99413.41
2022-12-17T08:51:12.524Z,99422.66
2022-12-17T08:54:34.346Z,99423.66
2022-12-17T08:58:00.632Z,99434.38
2022-12-17T09:01:21.094Z,99427.53
2022-12-17T09:04:41.628Z,99436.25
2022-12-17T09:08:01.914Z,99440.03
2022-12-17T09:11:23.549Z,99448.25
2022-12-17T09:14:43.632Z,99458.00
2022-12-17T09:18:04.010Z,99456.16
2022-12-17T09:21:25.634Z,99446.94
2022-12-17T09:24:45.874Z,99444.31
2022-12-17T09:28:07.524Z,99450.03
2022-12-17T09:31:31.147Z,99452.28
2022-12-17T09:34:55.708Z,99458.31
2022-12-17T09:38:16.426Z,99462.81
2022-12-17T09:41:44.782Z,99461.47
2022-12-17T09:45:16.203Z,99454.47
2022-12-17T09:48:41.752Z,99465.56
2022-12-17T09:55:48.888Z,99466.66
2022-12-17T09:59:09.104Z,99458.72
2022-12-17T10:02:33.423Z,99452.66
2022-12-17T10:05:54.422Z,99451.16
2022-12-17T10:09:17.343Z,99451.44
2022-12-17T10:12:38.915Z,99451.31
2022-12-17T10:16:00.404Z,99450.72
2022-12-17T10:19:22.305Z,99447.53
2022-12-17T10:22:42.696Z,99448.78
2022-12-17T10:26:09.674Z,99450.66
2022-12-17T10:29:31.896Z,99449.28
2022-12-17T10:32:48.475Z,99457.34
2022-12-17T10:36:10.327Z,99457.94
2022-12-17T10:39:34.796Z,99456.16
2022-12-17T10:42:56.839Z,99461.56
2022-12-17T10:46:16.932Z,99460.28
2022-12-17T10:49:39.285Z,99456.69
2022-12-17T10:53:03.199Z,99449.72
2022-12-17T10:56:24.130Z,99451.84
2022-12-17T10:59:50.718Z,99456.75
2022-12-17T11:03:10.862Z,99459.13
2022-12-17T11:06:32.926Z,99463.53
2022-12-17T11:10:03.681Z,99456.78
2022-12-17T11:13:29.421Z,99464.41
2022-12-17T11:16:53.154Z,99463.03
2022-12-17T11:20:15.906Z,99458.47
2022-12-17T11:23:38.090Z,99464.16
2022-12-17T11:27:00.480Z,99474.41
2022-12-17T11:30:27.739Z,99470.53
2022-12-17T11:33:55.343Z,99470.88
2022-12-17T11:37:19.554Z,99476.38
2022-12-17T11:40:44.085Z,99480.91
2022-12-17T11:44:10.386Z,99480.56
2022-12-17T11:47:36.724Z,99474.13
2022-12-17T11:51:00.972Z,99484.34
2022-12-17T11:54:25.801Z,99473.25
2022-12-17T11:57:48.590Z,99473.84
2022-12-17T12:01:26.025Z,99472.53
2022-12-17T12:04:59.097Z,99480.72
2022-12-17T12:08:24.329Z,99480.25
2022-12-17T12:11:49.159Z,99478.34
2022-12-17T12:15:15.087Z,99480.19
2022-12-17T12:18:47.921Z,99474.53
2022-12-17T12:22:14.020Z,99478.31
2022-12-17T12:25:55.946Z,99467.00
2022-12-17T12:29:19.258Z,99471.09
2022-12-17T12:32:44.750Z,99475.91
2022-12-17T12:36:06.538Z,99472.88
2022-12-17T12:39:31.046Z,99473.34
2022-12-17T12:42:58.116Z,99477.22
2022-12-17T12:46:21.020Z,99477.16
2022-12-17T12:49:44.321Z,99471.69
2022-12-17T12:53:06.671Z,99463.88
2022-12-17T12:56:45.091Z,99463.34
2022-12-17T13:00:08.179Z,99465.41
2022-12-17T13:03:39.815Z,99473.56
2022-12-17T13:06:46.250Z,99480.91
2022-12-17T13:09:52.612Z,99476.66
2022-12-17T13:12:55.506Z,99482.84
2022-12-17T13:16:04.590Z,99472.19
2022-12-17T13:19:20.866Z,99468.53
2022-12-17T13:22:29.524Z,99469.38
2022-12-17T13:25:33.473Z,99467.00
2022-12-17T13:28:36.069Z,99471.03
2022-12-17T13:31:49.355Z,99472.69
2022-12-17T13:35:10.073Z,99476.09
2022-12-17T13:38:24.365Z,99477.97
2022-12-17T13:41:31.259Z,99473.56
2022-12-17T13:44:39.414Z,99473.75
2022-12-17T13:47:42.180Z,99473.56
2022-12-17T13:50:54.817Z,99470.50
2022-12-17T13:53:59.045Z,99476.91
2022-12-17T13:57:10.789Z,99470.25
2022-12-17T14:00:21.415Z,99466.06
2022-12-17T14:03:42.999Z,99476.34
2022-12-17T14:06:47.255Z,99473.53
2022-12-17T14:09:51.042Z,99479.41
2022-12-17T14:13:02.043Z,99482.38
2022-12-17T14:16:04.961Z,99492.59
2022-12-17T14:19:10.241Z,99495.84
2022-12-17T14:22:17.970Z,99503.22
2022-12-17T14:25:22.943Z,99497.47
2022-12-17T14:28:32.467Z,99496.66
2022-12-17T14:31:35.147Z,99496.09
2022-12-17T14:34:41.781Z,99495.78
2022-12-17T14:37:48.540Z,99495.94
2022-12-17T14:40:51.184Z,99497.28
2022-12-17T14:44:00.013Z,99502.25
2022-12-17T14:47:15.210Z,99501.50
2022-12-17T14:50:27.997Z,99492.88
2022-12-17T14:53:30.993Z,99498.72
2022-12-17T14:56:34.116Z,99501.88
2022-12-17T14:59:39.398Z,99509.06
2022-12-17T15:02:43.787Z,99501.25
2022-12-17T15:05:48.915Z,99504.97
2022-12-17T15:08:53.308Z,99496.19
2022-12-17T15:11:55.982Z,99505.41
2022-12-17T15:15:00.051Z,99512.00
2022-12-17T15:18:02.614Z,99504.59
2022-12-17T15:21:05.474Z,99509.53
2022-12-17T15:24:12.108Z,99499.88
2022-12-17T15:27:16.275Z,99508.47
2022-12-17T15:30:20.424Z,99509.88
2022-12-17T15:33:23.015Z,99514.38
2022-12-17T15:36:25.663Z,99523.75
2022-12-17T15:39:28.310Z,99529.03
2022-12-17T15:42:49.424Z,99527.16
2022-12-17T15:45:54.863Z,99524.94
2022-12-17T15:48:58.738Z,99526.34
2022-12-17T15:52:01.310Z,99528.97
2022-12-17T15:55:04.079Z,99530.56
2022-12-17T15:58:08.090Z,99534.63
2022-12-17T16:01:12.006Z,99544.66
2022-12-17T16:04:20.243Z,99533.97
2022-12-17T16:07:26.704Z,99549.53
2022-12-17T16:10:29.882Z,99558.31
2022-12-17T16:13:32.589Z,99554.53
2022-12-17T16:16:36.783Z,99560.25
2022-12-17T16:19:39.665Z,99556.81
2022-12-17T16:22:42.414Z,99559.91
2022-12-17T16:25:44.967Z,99561.94
2022-12-17T16:28:47.895Z,99565.06
2022-12-17T16:31:51.864Z,99558.25
2022-12-17T16:34:54.458Z,99556.13
2022-12-17T16:37:57.111Z,99558.09
2022-12-17T16:41:01.171Z,99558.94
2022-12-17T16:44:04.210Z,99557.31
2022-12-17T16:47:08.476Z,99554.03
2022-12-17T16:50:11.812Z,99553.13
2022-12-17T16:53:14.800Z,99560.94
2022-12-17T16:56:20.196Z,99565.38
2022-12-17T16:59:23.408Z,99555.06
2022-12-17T17:02:27.675Z,99557.38
2022-12-17T17:05:32.946Z,99558.69
2022-12-17T17:08:36.203Z,99568.84
2022-12-17T17:11:39.072Z,99564.47
2022-12-17T17:14:43.835Z,99562.56
2022-12-17T17:17:54.789Z,99567.84
2022-12-17T17:21:14.848Z,99575.66
2022-12-17T17:24:21.653Z,99574.03
2022-12-17T17:27:24.986Z,99574.78
2022-12-17T17:30:27.671Z,99583.84
2022-12-17T17:33:32.633Z,99592.91
2022-12-17T17:36:35.221Z,99589.59
2022-12-17T17:39:37.977Z,99588.72
2022-12-17T17:42:40.823Z,99582.94
2022-12-17T17:45:43.444Z,99581.69
2022-12-17T17:48:53.884Z,99579.97
2022-12-17T17:52:14.597Z,99592.28
2022-12-17T17:55:17.537Z,99594.53
2022-12-17T17:58:20.500Z,99603.19
2022-12-17T18:01:25.126Z,99600.75
2022-12-17T18:04:29.319Z,99606.06
2022-12-17T18:07:31.976Z,99590.19
2022-12-17T18:10:34.730Z,99598.03
2022-12-17T18:13:55.923Z,99602.34
2022-12-17T18:16:58.789Z,99602.78
2022-12-17T18:20:02.723Z,99613.28
2022-12-17T18:23:05.303Z,99607.81
2022-12-17T18:26:09.552Z,99598.50
2022-12-17T18:29:13.952Z,99594.13
2022-12-17T18:32:16.707Z,99597.25
2022-12-17T18:35:20.873Z,99596.41
2022-12-17T18:38:23.505Z,99597.31
2022-12-17T18:41:44.236Z,99598.06
2022-12-17T18:44:46.853Z,99614.28
2022-12-17T18:47:49.519Z,99608.88
2022-12-17T18:50:53.700Z,99619.03
2022-12-17T18:53:58.178Z,99620.22
2022-12-17T18:57:02.164Z,99627.00
2022-12-17T19:00:06.518Z,99638.25
2022-12-17T19:03:10.232Z,99641.91
2022-12-17T19:06:15.647Z,99648.13
2022-12-17T19:09:19.969Z,99641.00
2022-12-17T19:12:22.599Z,99640.28
2022-12-17T19:15:25.119Z,99634.88
2022-12-17T19:18:27.779Z,99634.13
2022-12-17T19:21:33.594Z,99632.84
2022-12-17T19:24:36.208Z,99645.13
2022-12-17T19:27:39.137Z,99649.91
2022-12-17T19:30:42.008Z,99658.31
2022-12-17T19:33:44.805Z,99668.50
2022-12-17T19:36:48.989Z,99678.53
2022-12-17T19:39:51.514Z,99676.81
2022-12-17T19:42:55.824Z,99680.28
2022-12-17T19:46:03.769Z,99682.09
2022-12-17T19:49:07.632Z,99680.13
2022-12-17T19:52:11.607Z,99681.19
2022-12-17T19:55:14.493Z,99681.66
2022-12-17T19:58:17.172Z,99677.47
2022-12-17T20:01:22.618Z,99677.44
2022-12-17T20:04:25.285Z,99672.03
2022-12-17T20:07:29.248Z,99668.75
2022-12-17T20:10:33.631Z,99679.38
2022-12-17T20:13:36.247Z,99680.72
2022-12-17T20:16:40.577Z,99671.63
2022-12-17T20:19:43.587Z,99672.44
2022-12-17T20:22:47.494Z,99671.09
2022-12-17T20:25:50.122Z,99670.09
2022-12-17T20:28:53.341Z,99669.16
2022-12-17T20:31:56.457Z,99674.19
2022-12-17T20:34:59.109Z,99665.88
2022-12-17T20:38:03.132Z,99665.09
2022-12-17T20:41:10.112Z,99654.16
2022-12-17T20:44:14.690Z,99660.31
2022-12-17T20:47:17.285Z,99657.22
2022-12-17T20:50:19.841Z,99668.13
2022-12-17T20:53:23.781Z,99649.19
2022-12-17T20:56:28.168Z,99654.97
2022-12-17T20:59:31.047Z,99667.03
2022-12-17T21:02:33.813Z,99671.53
2022-12-17T21:05:36.900Z,99676.75
2022-12-17T21:08:47.732Z,99676.31
2022-12-17T21:11:52.178Z,99663.22
2022-12-17T21:14:54.765Z,99657.44
2022-12-17T21:17:57.573Z,99657.25
2022-12-17T21:21:02.007Z,99662.63
2022-12-17T21:24:06.764Z,99679.50
2022-12-17T21:27:14.520Z,99659.59
2022-12-17T21:30:17.578Z,99652.75
2022-12-17T21:33:20.261Z,99671.66
2022-12-17T21:36:23.972Z,99674.50
2022-12-17T21:39:28.495Z,99676.56
2022-12-17T21:42:48.639Z,99679.06
2022-12-17T21:45:57.461Z,99680.28
2022-12-17T21:49:01.520Z,99685.22
2022-12-17T21:52:04.663Z,99684.19
2022-12-17T21:55:11.608Z,99683.69
2022-12-17T21:58:15.329Z,99678.09
2022-12-17T22:01:21.558Z,99681.44
2022-12-17T22:04:24.687Z,99687.88
2022-12-17T22:07:30.273Z,99694.06
2022-12-17T22:10:43.919Z,99689.56
2022-12-17T22:14:08.819Z,99694.25
2022-12-17T22:17:12.739Z,99711.22
2022-12-17T22:20:17.407Z,99711.22
2022-12-17T22:23:20.124Z,99703.91
2022-12-17T22:26:24.409Z,99696.91
2022-12-17T22:29:45.341Z,99690.72
2022-12-17T22:33:09.483Z,99680.28
2022-12-17T22:38:49.490Z,99690.66
2022-12-17T22:44:31.970Z,99703.91
2022-12-17T22:44:45.245Z,99700.72
2022-12-17T22:46:54.749Z,99709.97
2022-12-17T22:49:57.194Z,99704.38
2022-12-17T22:53:00.423Z,99695.41
2022-12-17T22:56:14.695Z,99691.31
2022-12-17T22:59:22.831Z,99685.34
2022-12-17T23:02:25.487Z,99688.47
2022-12-17T23:05:29.531Z,99689.47
2022-12-17T23:08:32.107Z,99681.75
2022-12-17T23:11:34.835Z,99693.34
2022-12-17T23:14:38.720Z,99688.88
2022-12-17T23:17:41.358Z,99685.22
2022-12-17T23:20:44.334Z,99695.13
2022-12-17T23:23:47.183Z,99707.28
2022-12-17T23:26:49.742Z,99715.44
2022-12-17T23:29:53.746Z,99711.78
2022-12-17T23:32:56.283Z,99704.13
2022-12-17T23:36:03.982Z,99696.19
2022-12-17T23:39:09.135Z,99703.50
2022-12-17T23:42:11.783Z,99708.19
2022-12-17T23:45:15.801Z,99707.16
2022-12-17T23:48:18.597Z,99703.19
2022-12-17T23:51:23.237Z,99702.56
2022-12-17T23:54:26.136Z,99704.22
2022-12-17T23:57:29.194Z,99692.91
